DLH47T EDDM-EDDF
Flight info
| Callsign | DLH47T |
|---|---|
| Flight time | 0h 34m |
| Altitude | 24000 |
| Route | GIVM1N GIVMI Y101 ERNAS T161 DEBHI DEBH1B |
| Aircraft | A359/H-ICAO/L |
Departure
| Time | 2026-05-07 16:53 |
|---|---|
| Airport | Munich Airport (EDDM) |
Arrival
| Time | 2026-05-07 17:28 |
|---|---|
| Airport | Frankfurt Main Airport (EDDF) |
| Time | Latitude | Longitude | Altitude | Speed | Heading |
|---|---|---|---|---|---|
| 2026-05-07 16:13 | 48.35596 | 11.79295 | 1476 ft | 0 kts | 263° |
| 2026-05-07 16:38 | 48.35598 | 11.79310 | 1492 ft | 3 kts | 263° |
| 2026-05-07 16:38 | 48.35600 | 11.79336 | 1488 ft | 3 kts | 263° |
| 2026-05-07 16:38 | 48.35601 | 11.79358 | 1476 ft | 2 kts | 263° |
| 2026-05-07 16:38 | 48.35603 | 11.79382 | 1476 ft | 2 kts | 276° |
| 2026-05-07 16:39 | 48.35599 | 11.79405 | 1476 ft | 2 kts | 294° |
| 2026-05-07 16:39 | 48.35591 | 11.79425 | 1476 ft | 2 kts | 321° |
| 2026-05-07 16:39 | 48.35578 | 11.79435 | 1476 ft | 2 kts | 355° |
| 2026-05-07 16:39 | 48.35572 | 11.79435 | 1476 ft | 0 kts | 353° |
| 2026-05-07 16:42 | 48.35585 | 11.79433 | 1476 ft | 5 kts | 353° |
| 2026-05-07 16:42 | 48.35631 | 11.79424 | 1476 ft | 8 kts | 353° |
| 2026-05-07 16:43 | 48.35696 | 11.79411 | 1484 ft | 11 kts | 353° |
| 2026-05-07 16:43 | 48.35779 | 11.79395 | 1478 ft | 12 kts | 352° |
| 2026-05-07 16:43 | 48.35848 | 11.79381 | 1484 ft | 11 kts | 352° |
| 2026-05-07 16:43 | 48.35927 | 11.79350 | 1484 ft | 13 kts | 345° |
| 2026-05-07 16:44 | 48.35982 | 11.79334 | 1478 ft | 0 kts | 350° |
| 2026-05-07 16:44 | 48.36007 | 11.79328 | 1484 ft | 8 kts | 351° |
| 2026-05-07 16:45 | 48.36084 | 11.79309 | 1476 ft | 14 kts | 351° |
| 2026-05-07 16:45 | 48.36179 | 11.79312 | 1484 ft | 11 kts | 25° |
| 2026-05-07 16:45 | 48.36203 | 11.79384 | 1480 ft | 10 kts | 76° |
| 2026-05-07 16:45 | 48.36220 | 11.79545 | 1490 ft | 19 kts | 82° |
| 2026-05-07 16:46 | 48.36237 | 11.79750 | 1478 ft | 21 kts | 83° |
| 2026-05-07 16:46 | 48.36257 | 11.79979 | 1483 ft | 23 kts | 83° |
| 2026-05-07 16:46 | 48.36278 | 11.80228 | 1481 ft | 25 kts | 83° |
| 2026-05-07 16:46 | 48.36299 | 11.80495 | 1480 ft | 27 kts | 83° |
| 2026-05-07 16:47 | 48.36320 | 11.80778 | 1490 ft | 28 kts | 84° |
| 2026-05-07 16:47 | 48.36340 | 11.81066 | 1482 ft | 27 kts | 84° |
| 2026-05-07 16:47 | 48.36362 | 11.81357 | 1488 ft | 29 kts | 83° |
| 2026-05-07 16:47 | 48.36381 | 11.81598 | 1477 ft | 21 kts | 84° |
| 2026-05-07 16:48 | 48.36396 | 11.81809 | 1486 ft | 20 kts | 83° |
| 2026-05-07 16:48 | 48.36392 | 11.81992 | 1479 ft | 15 kts | 88° |
| 2026-05-07 16:48 | 48.36398 | 11.82080 | 1486 ft | 4 kts | 78° |
| 2026-05-07 16:48 | 48.36428 | 11.82123 | 1480 ft | 6 kts | 26° |
| 2026-05-07 16:49 | 48.36478 | 11.82127 | 1480 ft | 8 kts | 355° |
| 2026-05-07 16:49 | 48.36482 | 11.82127 | 1485 ft | 0 kts | 355° |
| 2026-05-07 16:50 | 48.36489 | 11.82126 | 1488 ft | 6 kts | 355° |
| 2026-05-07 16:50 | 48.36565 | 11.82117 | 1490 ft | 14 kts | 355° |
| 2026-05-07 16:51 | 48.36653 | 11.82031 | 1476 ft | 17 kts | 308° |
| 2026-05-07 16:51 | 48.36669 | 11.81873 | 1480 ft | 0 kts | 263° |
| 2026-05-07 16:51 | 48.36669 | 11.81871 | 1480 ft | 0 kts | 264° |
| 2026-05-07 16:52 | 48.36667 | 11.81846 | 1478 ft | 15 kts | 264° |
| 2026-05-07 16:53 | 48.36625 | 11.81306 | 1477 ft | 87 kts | 263° |
| 2026-05-07 16:53 | 48.36532 | 11.80094 | 1484 ft | 147 kts | 263° |
| 2026-05-07 16:53 | 48.36405 | 11.78423 | 1994 ft | 157 kts | 264° |
| 2026-05-07 16:53 | 48.36309 | 11.76861 | 2797 ft | 153 kts | 266° |
| 2026-05-07 16:54 | 48.36221 | 11.75181 | 3202 ft | 171 kts | 265° |
| 2026-05-07 16:54 | 48.36106 | 11.73299 | 3632 ft | 188 kts | 265° |
| 2026-05-07 16:54 | 48.35958 | 11.71298 | 4183 ft | 196 kts | 263° |
| 2026-05-07 16:54 | 48.35793 | 11.69229 | 4785 ft | 204 kts | 264° |
| 2026-05-07 16:55 | 48.35954 | 11.67089 | 5386 ft | 212 kts | 289° |
| 2026-05-07 16:55 | 48.36763 | 11.65183 | 6016 ft | 223 kts | 308° |
| 2026-05-07 16:55 | 48.37765 | 11.63242 | 6392 ft | 248 kts | 304° |
| 2026-05-07 16:55 | 48.38745 | 11.60999 | 6993 ft | 263 kts | 300° |
| 2026-05-07 16:56 | 48.39693 | 11.58608 | 7832 ft | 269 kts | 300° |
| 2026-05-07 16:56 | 48.40658 | 11.56224 | 8785 ft | 271 kts | 300° |
| 2026-05-07 16:56 | 48.42654 | 11.51452 | 10893 ft | 266 kts | 301° |
| 2026-05-07 16:57 | 48.43638 | 11.49069 | 11754 ft | 273 kts | 298° |
| 2026-05-07 16:57 | 48.44596 | 11.46519 | 12435 ft | 284 kts | 299° |
| 2026-05-07 16:57 | 48.45820 | 11.44148 | 13230 ft | 292 kts | 313° |
| 2026-05-07 16:57 | 48.47393 | 11.42118 | 13769 ft | 308 kts | 323° |
| 2026-05-07 16:58 | 48.49395 | 11.40742 | 14005 ft | 336 kts | 343° |
| 2026-05-07 16:58 | 48.51787 | 11.40062 | 14011 ft | 361 kts | 350° |
| 2026-05-07 16:58 | 48.54310 | 11.39546 | 14072 ft | 369 kts | 351° |
| 2026-05-07 16:58 | 48.56865 | 11.39051 | 14691 ft | 371 kts | 351° |
| 2026-05-07 16:59 | 48.59437 | 11.38553 | 15547 ft | 373 kts | 351° |
| 2026-05-07 16:59 | 48.62022 | 11.38052 | 16314 ft | 377 kts | 351° |
| 2026-05-07 16:59 | 48.64633 | 11.37546 | 17038 ft | 381 kts | 351° |
| 2026-05-07 16:59 | 48.67276 | 11.37028 | 17754 ft | 385 kts | 351° |
| 2026-05-07 17:00 | 48.69891 | 11.36151 | 18442 ft | 387 kts | 339° |
| 2026-05-07 17:00 | 48.72321 | 11.34398 | 19158 ft | 388 kts | 329° |
| 2026-05-07 17:00 | 48.74612 | 11.32286 | 19850 ft | 392 kts | 325° |
| 2026-05-07 17:00 | 48.76885 | 11.29971 | 20572 ft | 396 kts | 324° |
| 2026-05-07 17:01 | 48.79156 | 11.27572 | 21237 ft | 400 kts | 323° |
| 2026-05-07 17:01 | 48.81453 | 11.25138 | 21897 ft | 404 kts | 323° |
| 2026-05-07 17:01 | 48.83753 | 11.22655 | 22522 ft | 408 kts | 320° |
| 2026-05-07 17:01 | 48.85934 | 11.19860 | 23152 ft | 412 kts | 317° |
| 2026-05-07 17:02 | 48.88085 | 11.16967 | 23725 ft | 417 kts | 317° |
| 2026-05-07 17:02 | 48.90239 | 11.13998 | 23949 ft | 417 kts | 316° |
| 2026-05-07 17:02 | 48.92349 | 11.11053 | 24003 ft | 407 kts | 316° |
| 2026-05-07 17:02 | 48.94418 | 11.08149 | 24002 ft | 403 kts | 316° |
| 2026-05-07 17:03 | 48.96451 | 11.05292 | 24001 ft | 403 kts | 316° |
| 2026-05-07 17:03 | 48.98515 | 11.02401 | 24001 ft | 403 kts | 316° |
| 2026-05-07 17:03 | 49.00576 | 10.99505 | 24000 ft | 403 kts | 316° |
| 2026-05-07 17:03 | 49.02629 | 10.96615 | 24002 ft | 403 kts | 316° |
| 2026-05-07 17:04 | 49.04691 | 10.93710 | 24000 ft | 403 kts | 316° |
| 2026-05-07 17:04 | 49.06749 | 10.90811 | 24000 ft | 403 kts | 316° |
| 2026-05-07 17:04 | 49.08806 | 10.87914 | 24000 ft | 403 kts | 316° |
| 2026-05-07 17:04 | 49.10863 | 10.85019 | 24000 ft | 403 kts | 316° |
| 2026-05-07 17:05 | 49.12892 | 10.82150 | 24000 ft | 403 kts | 316° |
| 2026-05-07 17:05 | 49.14945 | 10.79240 | 24000 ft | 403 kts | 316° |
| 2026-05-07 17:05 | 49.16994 | 10.76332 | 24000 ft | 403 kts | 316° |
| 2026-05-07 17:05 | 49.19049 | 10.73412 | 24000 ft | 403 kts | 316° |
| 2026-05-07 17:06 | 49.21082 | 10.70469 | 24000 ft | 402 kts | 314° |
| 2026-05-07 17:06 | 49.23020 | 10.67405 | 24000 ft | 402 kts | 312° |
| 2026-05-07 17:06 | 49.24955 | 10.64298 | 24000 ft | 402 kts | 312° |
| 2026-05-07 17:06 | 49.26889 | 10.61213 | 24000 ft | 402 kts | 313° |
| 2026-05-07 17:07 | 49.28830 | 10.58128 | 24000 ft | 402 kts | 313° |
| 2026-05-07 17:07 | 49.30773 | 10.55048 | 24001 ft | 402 kts | 313° |
| 2026-05-07 17:07 | 49.32695 | 10.52003 | 24000 ft | 402 kts | 313° |
| 2026-05-07 17:07 | 49.34635 | 10.48929 | 24000 ft | 402 kts | 313° |
| 2026-05-07 17:08 | 49.36478 | 10.45712 | 24002 ft | 401 kts | 306° |
| 2026-05-07 17:08 | 49.38117 | 10.42239 | 24000 ft | 401 kts | 304° |
| 2026-05-07 17:08 | 49.39709 | 10.38740 | 24000 ft | 401 kts | 304° |
| 2026-05-07 17:08 | 49.41309 | 10.35221 | 24003 ft | 401 kts | 304° |
| 2026-05-07 17:09 | 49.42905 | 10.31710 | 23999 ft | 401 kts | 304° |
| 2026-05-07 17:09 | 49.44500 | 10.28202 | 24000 ft | 401 kts | 304° |
| 2026-05-07 17:09 | 49.46073 | 10.24740 | 24000 ft | 401 kts | 304° |
| 2026-05-07 17:09 | 49.47674 | 10.21212 | 24002 ft | 401 kts | 304° |
| 2026-05-07 17:10 | 49.49284 | 10.17659 | 23895 ft | 414 kts | 304° |
| 2026-05-07 17:10 | 49.50971 | 10.13930 | 23844 ft | 432 kts | 304° |
| 2026-05-07 17:10 | 49.52671 | 10.10171 | 23306 ft | 428 kts | 304° |
| 2026-05-07 17:10 | 49.54372 | 10.06413 | 22631 ft | 426 kts | 304° |
| 2026-05-07 17:11 | 49.56067 | 10.02663 | 22006 ft | 426 kts | 304° |
| 2026-05-07 17:11 | 49.57754 | 9.98914 | 21389 ft | 425 kts | 304° |
| 2026-05-07 17:11 | 49.59435 | 9.95183 | 20774 ft | 422 kts | 304° |
| 2026-05-07 17:11 | 49.61094 | 9.91487 | 20172 ft | 418 kts | 303° |
| 2026-05-07 17:12 | 49.62739 | 9.87811 | 19573 ft | 414 kts | 303° |
| 2026-05-07 17:12 | 49.64362 | 9.84184 | 18983 ft | 410 kts | 303° |
| 2026-05-07 17:12 | 49.65974 | 9.80576 | 18390 ft | 406 kts | 303° |
| 2026-05-07 17:12 | 49.67548 | 9.77050 | 17816 ft | 402 kts | 303° |
| 2026-05-07 17:13 | 49.69123 | 9.73517 | 17222 ft | 399 kts | 303° |
| 2026-05-07 17:13 | 49.70691 | 9.69997 | 16666 ft | 395 kts | 303° |
| 2026-05-07 17:13 | 49.72241 | 9.66511 | 16103 ft | 392 kts | 303° |
| 2026-05-07 17:13 | 49.73773 | 9.63063 | 15526 ft | 388 kts | 303° |
| 2026-05-07 17:14 | 49.75295 | 9.59637 | 14988 ft | 385 kts | 303° |
| 2026-05-07 17:14 | 49.76800 | 9.56238 | 14432 ft | 382 kts | 303° |
| 2026-05-07 17:14 | 49.78291 | 9.52865 | 13886 ft | 378 kts | 303° |
| 2026-05-07 17:14 | 49.79771 | 9.49513 | 13339 ft | 375 kts | 303° |
| 2026-05-07 17:15 | 49.81220 | 9.46229 | 12806 ft | 373 kts | 303° |
| 2026-05-07 17:15 | 49.82676 | 9.42924 | 12276 ft | 370 kts | 303° |
| 2026-05-07 17:15 | 49.84122 | 9.39640 | 11732 ft | 368 kts | 303° |
| 2026-05-07 17:15 | 49.85539 | 9.36365 | 11196 ft | 364 kts | 301° |
| 2026-05-07 17:16 | 49.86609 | 9.32851 | 10752 ft | 352 kts | 288° |
| 2026-05-07 17:16 | 49.87299 | 9.29375 | 10458 ft | 323 kts | 285° |
| 2026-05-07 17:16 | 49.87905 | 9.26169 | 10195 ft | 300 kts | 285° |
| 2026-05-07 17:16 | 49.88472 | 9.23181 | 9959 ft | 277 kts | 285° |
| 2026-05-07 17:17 | 49.89012 | 9.20342 | 9830 ft | 276 kts | 286° |
| 2026-05-07 17:17 | 49.89809 | 9.17616 | 9607 ft | 280 kts | 304° |
| 2026-05-07 17:17 | 49.91233 | 9.15657 | 9242 ft | 280 kts | 329° |
| 2026-05-07 17:17 | 49.93055 | 9.14591 | 8779 ft | 281 kts | 342° |
| 2026-05-07 17:18 | 49.94942 | 9.13821 | 8285 ft | 280 kts | 343° |
| 2026-05-07 17:18 | 49.96822 | 9.13096 | 7771 ft | 279 kts | 343° |
| 2026-05-07 17:18 | 49.98705 | 9.12372 | 7300 ft | 275 kts | 344° |
| 2026-05-07 17:18 | 50.00560 | 9.11707 | 6885 ft | 274 kts | 348° |
| 2026-05-07 17:19 | 50.02475 | 9.11602 | 6434 ft | 276 kts | 1° |
| 2026-05-07 17:19 | 50.04382 | 9.11859 | 5941 ft | 275 kts | 3° |
| 2026-05-07 17:19 | 50.06280 | 9.12177 | 5443 ft | 274 kts | 4° |
| 2026-05-07 17:19 | 50.08170 | 9.12492 | 4945 ft | 272 kts | 4° |
| 2026-05-07 17:20 | 50.10046 | 9.12794 | 4446 ft | 269 kts | 4° |
| 2026-05-07 17:20 | 50.11900 | 9.13095 | 4056 ft | 266 kts | 4° |
| 2026-05-07 17:20 | 50.13740 | 9.13340 | 3945 ft | 264 kts | 357° |
| 2026-05-07 17:20 | 50.15389 | 9.12625 | 3924 ft | 235 kts | 322° |
| 2026-05-07 17:21 | 50.16288 | 9.10715 | 3939 ft | 221 kts | 284° |
| 2026-05-07 17:21 | 50.16177 | 9.08377 | 3961 ft | 221 kts | 249° |
| 2026-05-07 17:21 | 50.15529 | 9.06193 | 3946 ft | 223 kts | 245° |
| 2026-05-07 17:21 | 50.14877 | 9.03989 | 3947 ft | 224 kts | 248° |
| 2026-05-07 17:22 | 50.14295 | 9.01743 | 3947 ft | 223 kts | 250° |
| 2026-05-07 17:22 | 50.13751 | 8.99481 | 3943 ft | 223 kts | 251° |
| 2026-05-07 17:22 | 50.13216 | 8.97215 | 3940 ft | 222 kts | 250° |
| 2026-05-07 17:22 | 50.12678 | 8.94957 | 3940 ft | 223 kts | 251° |
| 2026-05-07 17:23 | 50.12137 | 8.92696 | 3938 ft | 222 kts | 250° |
| 2026-05-07 17:23 | 50.11596 | 8.90432 | 3939 ft | 223 kts | 251° |
| 2026-05-07 17:23 | 50.11057 | 8.88168 | 3937 ft | 223 kts | 250° |
| 2026-05-07 17:23 | 50.10516 | 8.85904 | 3930 ft | 223 kts | 251° |
| 2026-05-07 17:24 | 50.09975 | 8.83635 | 3734 ft | 223 kts | 251° |
| 2026-05-07 17:24 | 50.09452 | 8.81445 | 3431 ft | 213 kts | 250° |
| 2026-05-07 17:24 | 50.08951 | 8.79346 | 3138 ft | 201 kts | 250° |
| 2026-05-07 17:24 | 50.08477 | 8.77363 | 2892 ft | 189 kts | 250° |
| 2026-05-07 17:25 | 50.08034 | 8.75505 | 2667 ft | 180 kts | 250° |
| 2026-05-07 17:25 | 50.07603 | 8.73704 | 2402 ft | 175 kts | 251° |
| 2026-05-07 17:25 | 50.07194 | 8.71976 | 2167 ft | 166 kts | 251° |
| 2026-05-07 17:25 | 50.06920 | 8.70265 | 1900 ft | 162 kts | 259° |
| 2026-05-07 17:26 | 50.06721 | 8.68589 | 1685 ft | 152 kts | 261° |
| 2026-05-07 17:26 | 50.06463 | 8.67054 | 1440 ft | 142 kts | 253° |
| 2026-05-07 17:26 | 50.06152 | 8.65656 | 1285 ft | 131 kts | 251° |
| 2026-05-07 17:26 | 50.05951 | 8.64791 | 1158 ft | 126 kts | 250° |
| 2026-05-07 17:27 | 50.05635 | 8.63520 | 1009 ft | 128 kts | 251° |
| 2026-05-07 17:27 | 50.05315 | 8.62193 | 824 ft | 133 kts | 251° |
| 2026-05-07 17:27 | 50.05022 | 8.60834 | 653 ft | 131 kts | 250° |
| 2026-05-07 17:27 | 50.04707 | 8.59516 | 492 ft | 128 kts | 251° |
| 2026-05-07 17:28 | 50.04399 | 8.58217 | 375 ft | 125 kts | 251° |
| 2026-05-07 17:28 | 50.04121 | 8.57062 | 362 ft | 99 kts | 250° |
| 2026-05-07 17:28 | 50.03992 | 8.56516 | 357 ft | 17 kts | 255° |
| 2026-05-07 17:28 | 50.03996 | 8.56325 | 362 ft | 29 kts | 277° |
| 2026-05-07 17:29 | 50.04009 | 8.56204 | 359 ft | 0 kts | 287° |
| 2026-05-07 17:29 | 50.04011 | 8.56198 | 362 ft | 2 kts | 294° |
| 2026-05-07 17:29 | 50.04031 | 8.56161 | 362 ft | 0 kts | 324° |
| 2026-05-07 17:30 | 50.04038 | 8.56154 | 362 ft | 0 kts | 327° |
| 2026-05-07 17:30 | 50.04040 | 8.56152 | 359 ft | 1 kts | 327° |
| 2026-05-07 17:30 | 50.04041 | 8.56151 | 359 ft | 0 kts | 327° |
| 2026-05-07 17:32 | 50.04083 | 8.56118 | 356 ft | 11 kts | 336° |
| 2026-05-07 17:32 | 50.04161 | 8.56073 | 359 ft | 7 kts | 342° |
| 2026-05-07 17:32 | 50.04166 | 8.56071 | 359 ft | 0 kts | 342° |
| 2026-05-07 17:33 | 50.04168 | 8.56070 | 359 ft | 1 kts | 342° |
| 2026-05-07 17:33 | 50.04173 | 8.56067 | 359 ft | 0 kts | 342° |
| 2026-05-07 17:33 | 50.04174 | 8.56067 | 359 ft | 1 kts | 342° |
| 2026-05-07 17:33 | 50.04209 | 8.56049 | 360 ft | 11 kts | 342° |
| 2026-05-07 17:34 | 50.04281 | 8.55973 | 362 ft | 14 kts | 327° |
| 2026-05-07 17:34 | 50.04379 | 8.55914 | 359 ft | 16 kts | 348° |
| 2026-05-07 17:34 | 50.04495 | 8.55939 | 359 ft | 18 kts | 14° |
| 2026-05-07 17:34 | 50.04578 | 8.56073 | 360 ft | 19 kts | 65° |
| 2026-05-07 17:35 | 50.04628 | 8.56265 | 354 ft | 16 kts | 70° |
| 2026-05-07 17:35 | 50.04660 | 8.56400 | 361 ft | 15 kts | 70° |
| 2026-05-07 17:35 | 50.04687 | 8.56506 | 361 ft | 7 kts | 58° |
| 2026-05-07 17:35 | 50.04731 | 8.56522 | 361 ft | 7 kts | 345° |
| 2026-05-07 17:36 | 50.04766 | 8.56502 | 360 ft | 0 kts | 339° |